sensor_id;sensor_type;location;lat;lon;timestamp;P1;durP1;ratioP1;P2;durP2;ratioP2
13331;SDS011;6735;51.456;12.626;2023-12-20T00:01:48;10.03;;;7.33;;
13331;SDS011;6735;51.456;12.626;2023-12-20T00:04:14;8.83;;;6.33;;
13331;SDS011;6735;51.456;12.626;2023-12-20T00:06:39;5.20;;;4.47;;
13331;SDS011;6735;51.456;12.626;2023-12-20T00:09:05;7.47;;;6.57;;
13331;SDS011;6735;51.456;12.626;2023-12-20T00:11:30;5.37;;;4.63;;
13331;SDS011;6735;51.456;12.626;2023-12-20T00:13:56;4.77;;;4.27;;
13331;SDS011;6735;51.456;12.626;2023-12-20T00:16:21;5.27;;;4.43;;
13331;SDS011;6735;51.456;12.626;2023-12-20T00:18:47;4.83;;;4.20;;
13331;SDS011;6735;51.456;12.626;2023-12-20T00:21:12;4.57;;;4.17;;
13331;SDS011;6735;51.456;12.626;2023-12-20T00:23:37;5.07;;;4.20;;
13331;SDS011;6735;51.456;12.626;2023-12-20T00:26:03;4.53;;;4.13;;
13331;SDS011;6735;51.456;12.626;2023-12-20T00:28:28;5.43;;;4.40;;
13331;SDS011;6735;51.456;12.626;2023-12-20T00:30:54;4.87;;;4.47;;
13331;SDS011;6735;51.456;12.626;2023-12-20T00:33:20;5.13;;;4.50;;
13331;SDS011;6735;51.456;12.626;2023-12-20T00:35:45;5.00;;;4.50;;
13331;SDS011;6735;51.456;12.626;2023-12-20T00:38:10;5.20;;;4.53;;
13331;SDS011;6735;51.456;12.626;2023-12-20T00:40:36;5.07;;;4.53;;
13331;SDS011;6735;51.456;12.626;2023-12-20T00:43:02;6.47;;;5.43;;
13331;SDS011;6735;51.456;12.626;2023-12-20T00:45:28;6.67;;;5.97;;
13331;SDS011;6735;51.456;12.626;2023-12-20T00:47:53;7.53;;;5.90;;
13331;SDS011;6735;51.456;12.626;2023-12-20T00:50:19;9.40;;;7.00;;
13331;SDS011;6735;51.456;12.626;2023-12-20T00:52:46;10.43;;;7.73;;
13331;SDS011;6735;51.456;12.626;2023-12-20T00:55:12;13.23;;;8.43;;
13331;SDS011;6735;51.456;12.626;2023-12-20T00:57:37;15.17;;;9.63;;
13331;SDS011;6735;51.456;12.626;2023-12-20T01:00:03;15.13;;;9.90;;
13331;SDS011;6735;51.456;12.626;2023-12-20T01:02:29;16.17;;;8.73;;
13331;SDS011;6735;51.456;12.626;2023-12-20T01:04:54;11.67;;;8.00;;
13331;SDS011;6735;51.456;12.626;2023-12-20T01:07:20;8.60;;;6.80;;
13331;SDS011;6735;51.456;12.626;2023-12-20T01:09:46;7.90;;;6.70;;
13331;SDS011;6735;51.456;12.626;2023-12-20T01:12:11;8.70;;;6.60;;
13331;SDS011;6735;51.456;12.626;2023-12-20T01:14:37;8.20;;;6.07;;
13331;SDS011;6735;51.456;12.626;2023-12-20T01:17:02;7.97;;;5.80;;
13331;SDS011;6735;51.456;12.626;2023-12-20T01:19:27;5.57;;;4.87;;
13331;SDS011;6735;51.456;12.626;2023-12-20T01:21:54;6.47;;;4.53;;
13331;SDS011;6735;51.456;12.626;2023-12-20T01:24:20;4.90;;;4.40;;
13331;SDS011;6735;51.456;12.626;2023-12-20T01:26:45;4.93;;;4.37;;
13331;SDS011;6735;51.456;12.626;2023-12-20T01:29:11;4.73;;;4.30;;
13331;SDS011;6735;51.456;12.626;2023-12-20T01:31:38;3.97;;;3.57;;
13331;SDS011;6735;51.456;12.626;2023-12-20T01:34:03;4.10;;;3.70;;
13331;SDS011;6735;51.456;12.626;2023-12-20T01:36:28;4.57;;;3.83;;
13331;SDS011;6735;51.456;12.626;2023-12-20T01:38:54;4.07;;;3.67;;
13331;SDS011;6735;51.456;12.626;2023-12-20T01:41:19;5.33;;;4.10;;
13331;SDS011;6735;51.456;12.626;2023-12-20T01:43:45;4.03;;;3.63;;
13331;SDS011;6735;51.456;12.626;2023-12-20T01:46:10;4.37;;;3.97;;
13331;SDS011;6735;51.456;12.626;2023-12-20T01:48:37;3.70;;;3.40;;
13331;SDS011;6735;51.456;12.626;2023-12-20T01:51:02;4.30;;;3.27;;
13331;SDS011;6735;51.456;12.626;2023-12-20T01:53:28;4.97;;;3.90;;
13331;SDS011;6735;51.456;12.626;2023-12-20T01:55:55;4.20;;;3.80;;
13331;SDS011;6735;51.456;12.626;2023-12-20T01:58:23;3.40;;;3.00;;
13331;SDS011;6735;51.456;12.626;2023-12-20T02:00:49;4.00;;;3.60;;
13331;SDS011;6735;51.456;12.626;2023-12-20T02:03:15;3.77;;;3.47;;
13331;SDS011;6735;51.456;12.626;2023-12-20T02:05:43;4.20;;;3.37;;
13331;SDS011;6735;51.456;12.626;2023-12-20T02:08:10;4.47;;;3.47;;
13331;SDS011;6735;51.456;12.626;2023-12-20T02:10:36;3.83;;;3.50;;
13331;SDS011;6735;51.456;12.626;2023-12-20T02:13:01;3.47;;;3.17;;
13331;SDS011;6735;51.456;12.626;2023-12-20T02:15:27;3.93;;;3.53;;
13331;SDS011;6735;51.456;12.626;2023-12-20T02:17:52;3.70;;;3.40;;
13331;SDS011;6735;51.456;12.626;2023-12-20T02:20:19;3.40;;;3.10;;
13331;SDS011;6735;51.456;12.626;2023-12-20T02:22:44;3.47;;;3.17;;
13331;SDS011;6735;51.456;12.626;2023-12-20T02:25:10;4.57;;;3.63;;
13331;SDS011;6735;51.456;12.626;2023-12-20T02:27:35;4.23;;;3.20;;
13331;SDS011;6735;51.456;12.626;2023-12-20T02:30:01;3.83;;;3.50;;
13331;SDS011;6735;51.456;12.626;2023-12-20T02:32:28;3.57;;;3.27;;
13331;SDS011;6735;51.456;12.626;2023-12-20T02:34:54;3.70;;;3.40;;
13331;SDS011;6735;51.456;12.626;2023-12-20T02:37:20;3.40;;;3.10;;
13331;SDS011;6735;51.456;12.626;2023-12-20T02:39:45;3.30;;;3.00;;
13331;SDS011;6735;51.456;12.626;2023-12-20T02:42:11;3.37;;;3.07;;
13331;SDS011;6735;51.456;12.626;2023-12-20T02:44:36;3.93;;;2.90;;
13331;SDS011;6735;51.456;12.626;2023-12-20T02:47:02;3.33;;;3.07;;
13331;SDS011;6735;51.456;12.626;2023-12-20T02:49:27;3.73;;;3.40;;
13331;SDS011;6735;51.456;12.626;2023-12-20T02:51:53;3.23;;;2.87;;
13331;SDS011;6735;51.456;12.626;2023-12-20T02:54:18;3.13;;;2.83;;
13331;SDS011;6735;51.456;12.626;2023-12-20T02:56:44;3.33;;;3.03;;
13331;SDS011;6735;51.456;12.626;2023-12-20T02:59:09;3.40;;;3.00;;
13331;SDS011;6735;51.456;12.626;2023-12-20T03:01:35;3.67;;;3.20;;
13331;SDS011;6735;51.456;12.626;2023-12-20T03:04:06;3.37;;;3.07;;
13331;SDS011;6735;51.456;12.626;2023-12-20T03:06:31;15.33;;;3.50;;
13331;SDS011;6735;51.456;12.626;2023-12-20T03:08:57;3.90;;;3.60;;
13331;SDS011;6735;51.456;12.626;2023-12-20T03:11:26;3.50;;;3.20;;
13331;SDS011;6735;51.456;12.626;2023-12-20T03:13:51;3.87;;;3.40;;
13331;SDS011;6735;51.456;12.626;2023-12-20T03:16:17;3.63;;;3.33;;
13331;SDS011;6735;51.456;12.626;2023-12-20T03:18:42;3.30;;;3.00;;
13331;SDS011;6735;51.456;12.626;2023-12-20T03:21:08;3.53;;;3.27;;
13331;SDS011;6735;51.456;12.626;2023-12-20T03:23:34;4.13;;;3.73;;
13331;SDS011;6735;51.456;12.626;2023-12-20T03:25:59;3.60;;;3.30;;
13331;SDS011;6735;51.456;12.626;2023-12-20T03:28:26;4.03;;;3.47;;
13331;SDS011;6735;51.456;12.626;2023-12-20T03:30:52;3.40;;;3.10;;
13331;SDS011;6735;51.456;12.626;2023-12-20T03:33:18;4.07;;;3.50;;
13331;SDS011;6735;51.456;12.626;2023-12-20T03:35:43;3.70;;;3.40;;
13331;SDS011;6735;51.456;12.626;2023-12-20T03:38:09;5.63;;;4.40;;
13331;SDS011;6735;51.456;12.626;2023-12-20T03:40:34;4.37;;;3.53;;
13331;SDS011;6735;51.456;12.626;2023-12-20T03:43:00;4.43;;;3.83;;
13331;SDS011;6735;51.456;12.626;2023-12-20T03:45:26;4.07;;;3.67;;
13331;SDS011;6735;51.456;12.626;2023-12-20T03:47:51;4.33;;;3.93;;
13331;SDS011;6735;51.456;12.626;2023-12-20T03:50:22;4.33;;;3.93;;
13331;SDS011;6735;51.456;12.626;2023-12-20T03:52:47;4.60;;;3.83;;
13331;SDS011;6735;51.456;12.626;2023-12-20T03:55:13;4.97;;;3.80;;
13331;SDS011;6735;51.456;12.626;2023-12-20T03:57:38;4.80;;;4.00;;
13331;SDS011;6735;51.456;12.626;2023-12-20T04:00:04;6.13;;;4.63;;
13331;SDS011;6735;51.456;12.626;2023-12-20T04:02:35;7.00;;;4.57;;
13331;SDS011;6735;51.456;12.626;2023-12-20T04:05:04;4.63;;;4.17;;
13331;SDS011;6735;51.456;12.626;2023-12-20T04:07:30;3.93;;;3.53;;
13331;SDS011;6735;51.456;12.626;2023-12-20T04:09:56;4.20;;;3.53;;
13331;SDS011;6735;51.456;12.626;2023-12-20T04:12:22;4.40;;;3.73;;
13331;SDS011;6735;51.456;12.626;2023-12-20T04:14:47;5.17;;;4.10;;
13331;SDS011;6735;51.456;12.626;2023-12-20T04:17:13;4.17;;;3.70;;
13331;SDS011;6735;51.456;12.626;2023-12-20T04:19:40;3.80;;;3.50;;
13331;SDS011;6735;51.456;12.626;2023-12-20T04:22:06;3.80;;;3.40;;
13331;SDS011;6735;51.456;12.626;2023-12-20T04:24:31;4.33;;;3.80;;
13331;SDS011;6735;51.456;12.626;2023-12-20T04:26:57;4.40;;;3.97;;
13331;SDS011;6735;51.456;12.626;2023-12-20T04:29:22;4.30;;;3.90;;
13331;SDS011;6735;51.456;12.626;2023-12-20T04:31:48;3.90;;;3.60;;
13331;SDS011;6735;51.456;12.626;2023-12-20T04:34:16;4.00;;;3.60;;
13331;SDS011;6735;51.456;12.626;2023-12-20T04:36:41;3.73;;;3.37;;
13331;SDS011;6735;51.456;12.626;2023-12-20T04:39:07;3.57;;;3.27;;
13331;SDS011;6735;51.456;12.626;2023-12-20T04:41:32;4.03;;;3.73;;
13331;SDS011;6735;51.456;12.626;2023-12-20T04:43:58;4.00;;;3.57;;
13331;SDS011;6735;51.456;12.626;2023-12-20T04:46:23;4.57;;;4.17;;
13331;SDS011;6735;51.456;12.626;2023-12-20T04:48:49;4.37;;;3.97;;
13331;SDS011;6735;51.456;12.626;2023-12-20T04:51:14;4.13;;;3.73;;
13331;SDS011;6735;51.456;12.626;2023-12-20T04:53:40;4.40;;;4.00;;
13331;SDS011;6735;51.456;12.626;2023-12-20T04:56:05;4.70;;;4.27;;
13331;SDS011;6735;51.456;12.626;2023-12-20T04:58:31;7.07;;;5.20;;
13331;SDS011;6735;51.456;12.626;2023-12-20T05:00:56;6.00;;;5.40;;
13331;SDS011;6735;51.456;12.626;2023-12-20T05:03:22;5.60;;;4.97;;
13331;SDS011;6735;51.456;12.626;2023-12-20T05:05:47;4.37;;;3.97;;
13331;SDS011;6735;51.456;12.626;2023-12-20T05:08:13;5.33;;;4.83;;
13331;SDS011;6735;51.456;12.626;2023-12-20T05:10:38;5.37;;;4.77;;
13331;SDS011;6735;51.456;12.626;2023-12-20T05:13:05;5.20;;;4.70;;
13331;SDS011;6735;51.456;12.626;2023-12-20T05:15:30;4.60;;;4.20;;
13331;SDS011;6735;51.456;12.626;2023-12-20T05:17:56;5.00;;;4.50;;
13331;SDS011;6735;51.456;12.626;2023-12-20T05:20:21;5.03;;;4.53;;
13331;SDS011;6735;51.456;12.626;2023-12-20T05:22:48;5.20;;;4.63;;
13331;SDS011;6735;51.456;12.626;2023-12-20T05:25:13;4.87;;;4.40;;
13331;SDS011;6735;51.456;12.626;2023-12-20T05:27:39;4.80;;;4.10;;
13331;SDS011;6735;51.456;12.626;2023-12-20T05:30:04;4.47;;;4.07;;
13331;SDS011;6735;51.456;12.626;2023-12-20T05:32:30;5.07;;;4.40;;
13331;SDS011;6735;51.456;12.626;2023-12-20T05:34:56;4.13;;;3.73;;
13331;SDS011;6735;51.456;12.626;2023-12-20T05:37:21;5.00;;;4.50;;
13331;SDS011;6735;51.456;12.626;2023-12-20T05:39:47;4.33;;;3.93;;
13331;SDS011;6735;51.456;12.626;2023-12-20T05:42:12;4.70;;;4.13;;
13331;SDS011;6735;51.456;12.626;2023-12-20T05:44:38;5.07;;;4.27;;
13331;SDS011;6735;51.456;12.626;2023-12-20T05:47:03;5.00;;;4.40;;
13331;SDS011;6735;51.456;12.626;2023-12-20T05:49:29;4.57;;;3.90;;
13331;SDS011;6735;51.456;12.626;2023-12-20T05:51:54;6.37;;;4.57;;
13331;SDS011;6735;51.456;12.626;2023-12-20T05:54:20;4.93;;;3.77;;
13331;SDS011;6735;51.456;12.626;2023-12-20T05:56:46;5.23;;;3.93;;
13331;SDS011;6735;51.456;12.626;2023-12-20T05:59:12;5.90;;;3.73;;
13331;SDS011;6735;51.456;12.626;2023-12-20T06:01:37;4.23;;;3.83;;
13331;SDS011;6735;51.456;12.626;2023-12-20T06:04:03;4.67;;;4.10;;
13331;SDS011;6735;51.456;12.626;2023-12-20T06:06:28;6.03;;;4.23;;
13331;SDS011;6735;51.456;12.626;2023-12-20T06:08:55;4.87;;;4.37;;
13331;SDS011;6735;51.456;12.626;2023-12-20T06:11:20;4.90;;;4.40;;
13331;SDS011;6735;51.456;12.626;2023-12-20T06:13:46;5.03;;;4.50;;
13331;SDS011;6735;51.456;12.626;2023-12-20T06:16:11;5.57;;;4.70;;
13331;SDS011;6735;51.456;12.626;2023-12-20T06:18:37;5.77;;;4.40;;
13331;SDS011;6735;51.456;12.626;2023-12-20T06:21:02;6.53;;;5.72;;
13331;SDS011;6735;51.456;12.626;2023-12-20T06:23:28;10.13;;;5.73;;
13331;SDS011;6735;51.456;12.626;2023-12-20T06:25:54;6.00;;;5.20;;
13331;SDS011;6735;51.456;12.626;2023-12-20T06:28:19;5.57;;;5.00;;
13331;SDS011;6735;51.456;12.626;2023-12-20T06:30:45;5.57;;;4.87;;
13331;SDS011;6735;51.456;12.626;2023-12-20T06:33:12;5.40;;;4.63;;
13331;SDS011;6735;51.456;12.626;2023-12-20T06:35:38;6.87;;;5.67;;
13331;SDS011;6735;51.456;12.626;2023-12-20T06:38:03;7.00;;;5.67;;
13331;SDS011;6735;51.456;12.626;2023-12-20T06:40:29;5.33;;;4.83;;
13331;SDS011;6735;51.456;12.626;2023-12-20T06:42:55;4.97;;;4.47;;
13331;SDS011;6735;51.456;12.626;2023-12-20T06:45:20;5.20;;;4.20;;
13331;SDS011;6735;51.456;12.626;2023-12-20T06:47:45;5.07;;;4.30;;
13331;SDS011;6735;51.456;12.626;2023-12-20T06:50:11;4.20;;;3.80;;
13331;SDS011;6735;51.456;12.626;2023-12-20T06:52:36;3.97;;;3.60;;
13331;SDS011;6735;51.456;12.626;2023-12-20T06:55:02;4.97;;;3.90;;
13331;SDS011;6735;51.456;12.626;2023-12-20T06:57:28;4.30;;;3.50;;
13331;SDS011;6735;51.456;12.626;2023-12-20T06:59:54;4.93;;;3.90;;
13331;SDS011;6735;51.456;12.626;2023-12-20T07:02:20;4.50;;;3.63;;
13331;SDS011;6735;51.456;12.626;2023-12-20T07:04:47;4.07;;;3.63;;
13331;SDS011;6735;51.456;12.626;2023-12-20T07:07:12;4.37;;;3.87;;
13331;SDS011;6735;51.456;12.626;2023-12-20T07:09:38;4.37;;;3.97;;
13331;SDS011;6735;51.456;12.626;2023-12-20T07:12:04;4.70;;;3.50;;
13331;SDS011;6735;51.456;12.626;2023-12-20T07:14:29;4.10;;;3.70;;
13331;SDS011;6735;51.456;12.626;2023-12-20T07:16:55;5.13;;;3.90;;
13331;SDS011;6735;51.456;12.626;2023-12-20T07:19:20;4.73;;;4.10;;
13331;SDS011;6735;51.456;12.626;2023-12-20T07:21:46;5.33;;;4.00;;
13331;SDS011;6735;51.456;12.626;2023-12-20T07:24:11;6.00;;;4.00;;
13331;SDS011;6735;51.456;12.626;2023-12-20T07:26:37;4.73;;;4.00;;
13331;SDS011;6735;51.456;12.626;2023-12-20T07:29:03;5.90;;;4.70;;
13331;SDS011;6735;51.456;12.626;2023-12-20T07:31:29;9.70;;;4.50;;
13331;SDS011;6735;51.456;12.626;2023-12-20T07:33:54;6.77;;;4.37;;
13331;SDS011;6735;51.456;12.626;2023-12-20T07:36:20;5.03;;;4.00;;
13331;SDS011;6735;51.456;12.626;2023-12-20T07:38:46;5.97;;;4.23;;
13331;SDS011;6735;51.456;12.626;2023-12-20T07:41:12;10.13;;;4.20;;
13331;SDS011;6735;51.456;12.626;2023-12-20T07:43:38;5.93;;;3.73;;
13331;SDS011;6735;51.456;12.626;2023-12-20T07:46:04;6.57;;;4.80;;
13331;SDS011;6735;51.456;12.626;2023-12-20T07:48:30;4.50;;;3.87;;
13331;SDS011;6735;51.456;12.626;2023-12-20T07:50:56;6.03;;;3.90;;
13331;SDS011;6735;51.456;12.626;2023-12-20T07:53:21;4.90;;;4.13;;
13331;SDS011;6735;51.456;12.626;2023-12-20T07:55:47;4.57;;;3.80;;
13331;SDS011;6735;51.456;12.626;2023-12-20T07:58:12;4.53;;;2.90;;
13331;SDS011;6735;51.456;12.626;2023-12-20T08:00:38;4.00;;;3.37;;
13331;SDS011;6735;51.456;12.626;2023-12-20T08:03:03;5.20;;;3.20;;
13331;SDS011;6735;51.456;12.626;2023-12-20T08:05:29;3.87;;;2.80;;
13331;SDS011;6735;51.456;12.626;2023-12-20T08:07:54;3.13;;;2.80;;
13331;SDS011;6735;51.456;12.626;2023-12-20T08:10:20;6.13;;;3.40;;
13331;SDS011;6735;51.456;12.626;2023-12-20T08:12:45;4.00;;;2.60;;
13331;SDS011;6735;51.456;12.626;2023-12-20T08:15:11;5.83;;;2.50;;
13331;SDS011;6735;51.456;12.626;2023-12-20T08:17:36;6.63;;;2.33;;
13331;SDS011;6735;51.456;12.626;2023-12-20T08:20:01;2.80;;;2.20;;
13331;SDS011;6735;51.456;12.626;2023-12-20T08:22:27;4.50;;;2.63;;
13331;SDS011;6735;51.456;12.626;2023-12-20T08:24:53;3.53;;;2.30;;
13331;SDS011;6735;51.456;12.626;2023-12-20T08:27:18;3.53;;;2.40;;
13331;SDS011;6735;51.456;12.626;2023-12-20T08:29:44;4.60;;;2.20;;
13331;SDS011;6735;51.456;12.626;2023-12-20T08:32:10;2.50;;;2.30;;
13331;SDS011;6735;51.456;12.626;2023-12-20T08:34:36;5.07;;;3.43;;
13331;SDS011;6735;51.456;12.626;2023-12-20T08:37:01;3.17;;;2.90;;
13331;SDS011;6735;51.456;12.626;2023-12-20T08:39:27;4.33;;;2.73;;
13331;SDS011;6735;51.456;12.626;2023-12-20T08:41:52;3.73;;;2.10;;
13331;SDS011;6735;51.456;12.626;2023-12-20T08:44:18;2.90;;;2.13;;
13331;SDS011;6735;51.456;12.626;2023-12-20T08:46:43;3.77;;;2.50;;
13331;SDS011;6735;51.456;12.626;2023-12-20T08:49:09;4.73;;;2.80;;
13331;SDS011;6735;51.456;12.626;2023-12-20T08:51:34;3.70;;;2.70;;
13331;SDS011;6735;51.456;12.626;2023-12-20T08:54:00;5.10;;;2.40;;
13331;SDS011;6735;51.456;12.626;2023-12-20T08:56:25;4.63;;;3.03;;
13331;SDS011;6735;51.456;12.626;2023-12-20T08:58:51;3.37;;;2.63;;
13331;SDS011;6735;51.456;12.626;2023-12-20T09:01:16;3.63;;;2.10;;
13331;SDS011;6735;51.456;12.626;2023-12-20T09:03:42;2.20;;;2.00;;
13331;SDS011;6735;51.456;12.626;2023-12-20T09:06:08;3.27;;;2.00;;
13331;SDS011;6735;51.456;12.626;2023-12-20T09:08:33;3.57;;;2.03;;
13331;SDS011;6735;51.456;12.626;2023-12-20T09:10:59;2.40;;;2.13;;
13331;SDS011;6735;51.456;12.626;2023-12-20T09:13:25;6.00;;;3.93;;
13331;SDS011;6735;51.456;12.626;2023-12-20T09:15:54;3.53;;;3.20;;
13331;SDS011;6735;51.456;12.626;2023-12-20T09:18:22;2.27;;;2.07;;
13331;SDS011;6735;51.456;12.626;2023-12-20T09:20:48;4.20;;;2.53;;
13331;SDS011;6735;51.456;12.626;2023-12-20T09:23:13;7.13;;;2.60;;
13331;SDS011;6735;51.456;12.626;2023-12-20T09:25:39;2.57;;;2.13;;
13331;SDS011;6735;51.456;12.626;2023-12-20T09:28:04;3.90;;;1.87;;
13331;SDS011;6735;51.456;12.626;2023-12-20T09:30:30;3.63;;;2.30;;
13331;SDS011;6735;51.456;12.626;2023-12-20T09:32:56;4.53;;;2.60;;
13331;SDS011;6735;51.456;12.626;2023-12-20T09:35:22;3.30;;;2.30;;
13331;SDS011;6735;51.456;12.626;2023-12-20T09:37:49;3.40;;;2.50;;
13331;SDS011;6735;51.456;12.626;2023-12-20T09:40:14;3.90;;;2.47;;
13331;SDS011;6735;51.456;12.626;2023-12-20T09:42:47;2.83;;;2.00;;
13331;SDS011;6735;51.456;12.626;2023-12-20T09:45:14;3.77;;;2.83;;
13331;SDS011;6735;51.456;12.626;2023-12-20T09:47:42;3.17;;;2.70;;
13331;SDS011;6735;51.456;12.626;2023-12-20T09:50:08;5.37;;;2.20;;
13331;SDS011;6735;51.456;12.626;2023-12-20T09:52:34;4.63;;;2.20;;
13331;SDS011;6735;51.456;12.626;2023-12-20T09:55:01;3.17;;;1.90;;
13331;SDS011;6735;51.456;12.626;2023-12-20T09:57:30;3.33;;;2.57;;
13331;SDS011;6735;51.456;12.626;2023-12-20T09:59:57;5.73;;;2.30;;
13331;SDS011;6735;51.456;12.626;2023-12-20T10:02:23;4.23;;;2.70;;
13331;SDS011;6735;51.456;12.626;2023-12-20T10:04:52;11.27;;;3.10;;
13331;SDS011;6735;51.456;12.626;2023-12-20T10:07:17;2.40;;;2.17;;
13331;SDS011;6735;51.456;12.626;2023-12-20T10:09:43;6.57;;;2.43;;
13331;SDS011;6735;51.456;12.626;2023-12-20T10:12:09;6.33;;;2.40;;
13331;SDS011;6735;51.456;12.626;2023-12-20T10:14:34;5.77;;;2.90;;
13331;SDS011;6735;51.456;12.626;2023-12-20T10:17:03;2.60;;;2.40;;
13331;SDS011;6735;51.456;12.626;2023-12-20T10:19:30;4.40;;;3.57;;
13331;SDS011;6735;51.456;12.626;2023-12-20T10:21:57;6.40;;;2.83;;
13331;SDS011;6735;51.456;12.626;2023-12-20T10:24:24;2.87;;;2.40;;
13331;SDS011;6735;51.456;12.626;2023-12-20T10:27:01;6.17;;;3.10;;
13331;SDS011;6735;51.456;12.626;2023-12-20T10:29:31;4.10;;;3.00;;
13331;SDS011;6735;51.456;12.626;2023-12-20T10:32:21;6.00;;;2.90;;
13331;SDS011;6735;51.456;12.626;2023-12-20T10:34:52;5.77;;;2.87;;
13331;SDS011;6735;51.456;12.626;2023-12-20T10:37:18;3.40;;;2.70;;
13331;SDS011;6735;51.456;12.626;2023-12-20T10:39:44;6.20;;;3.57;;
13331;SDS011;6735;51.456;12.626;2023-12-20T10:42:14;6.30;;;2.67;;
13331;SDS011;6735;51.456;12.626;2023-12-20T10:44:41;5.40;;;2.60;;
13331;SDS011;6735;51.456;12.626;2023-12-20T10:47:07;7.27;;;2.77;;
13331;SDS011;6735;51.456;12.626;2023-12-20T10:49:36;4.83;;;2.50;;
13331;SDS011;6735;51.456;12.626;2023-12-20T10:52:04;4.00;;;2.20;;
13331;SDS011;6735;51.456;12.626;2023-12-20T10:54:31;5.10;;;2.70;;
13331;SDS011;6735;51.456;12.626;2023-12-20T10:56:58;3.77;;;2.60;;
13331;SDS011;6735;51.456;12.626;2023-12-20T10:59:24;5.80;;;2.73;;
13331;SDS011;6735;51.456;12.626;2023-12-20T11:01:52;4.73;;;2.50;;
13331;SDS011;6735;51.456;12.626;2023-12-20T11:04:23;5.80;;;2.60;;
13331;SDS011;6735;51.456;12.626;2023-12-20T11:06:56;3.83;;;2.50;;
13331;SDS011;6735;51.456;12.626;2023-12-20T11:09:33;5.40;;;2.67;;
13331;SDS011;6735;51.456;12.626;2023-12-20T11:12:10;7.20;;;2.63;;
13331;SDS011;6735;51.456;12.626;2023-12-20T11:14:50;2.50;;;2.30;;
13331;SDS011;6735;51.456;12.626;2023-12-20T11:17:17;8.90;;;2.90;;
13331;SDS011;6735;51.456;12.626;2023-12-20T11:20:03;3.70;;;2.63;;
13331;SDS011;6735;51.456;12.626;2023-12-20T11:22:32;5.87;;;2.80;;
13331;SDS011;6735;51.456;12.626;2023-12-20T11:25:02;4.97;;;2.60;;
13331;SDS011;6735;51.456;12.626;2023-12-20T11:27:30;7.17;;;2.60;;
13331;SDS011;6735;51.456;12.626;2023-12-20T11:29:57;5.50;;;2.67;;
13331;SDS011;6735;51.456;12.626;2023-12-20T11:34:50;4.47;;;2.00;;
13331;SDS011;6735;51.456;12.626;2023-12-20T11:37:16;4.63;;;2.93;;
13331;SDS011;6735;51.456;12.626;2023-12-20T11:39:54;3.47;;;2.17;;
13331;SDS011;6735;51.456;12.626;2023-12-20T11:42:21;5.10;;;2.50;;
13331;SDS011;6735;51.456;12.626;2023-12-20T11:44:47;4.13;;;2.23;;
13331;SDS011;6735;51.456;12.626;2023-12-20T11:47:12;3.57;;;2.40;;
13331;SDS011;6735;51.456;12.626;2023-12-20T11:49:39;5.80;;;2.50;;
13331;SDS011;6735;51.456;12.626;2023-12-20T11:52:05;5.03;;;2.20;;
13331;SDS011;6735;51.456;12.626;2023-12-20T11:54:30;2.97;;;2.10;;
13331;SDS011;6735;51.456;12.626;2023-12-20T11:56:56;4.83;;;2.10;;
13331;SDS011;6735;51.456;12.626;2023-12-20T11:59:22;4.90;;;2.50;;
13331;SDS011;6735;51.456;12.626;2023-12-20T12:01:48;5.60;;;2.70;;
13331;SDS011;6735;51.456;12.626;2023-12-20T12:04:15;5.00;;;2.20;;
13331;SDS011;6735;51.456;12.626;2023-12-20T12:06:42;2.77;;;2.20;;
13331;SDS011;6735;51.456;12.626;2023-12-20T12:09:08;5.57;;;2.80;;
13331;SDS011;6735;51.456;12.626;2023-12-20T12:11:33;3.30;;;2.10;;
13331;SDS011;6735;51.456;12.626;2023-12-20T12:13:59;5.20;;;2.40;;
13331;SDS011;6735;51.456;12.626;2023-12-20T12:16:25;4.30;;;1.90;;
13331;SDS011;6735;51.456;12.626;2023-12-20T12:18:55;3.40;;;2.17;;
13331;SDS011;6735;51.456;12.626;2023-12-20T12:21:21;2.20;;;2.00;;
13331;SDS011;6735;51.456;12.626;2023-12-20T12:23:47;4.13;;;1.80;;
13331;SDS011;6735;51.456;12.626;2023-12-20T12:26:12;6.10;;;2.33;;
13331;SDS011;6735;51.456;12.626;2023-12-20T12:28:41;5.33;;;2.20;;
13331;SDS011;6735;51.456;12.626;2023-12-20T12:31:07;3.53;;;2.27;;
13331;SDS011;6735;51.456;12.626;2023-12-20T12:33:34;2.97;;;1.90;;
13331;SDS011;6735;51.456;12.626;2023-12-20T12:36:00;5.00;;;2.10;;
13331;SDS011;6735;51.456;12.626;2023-12-20T12:38:26;3.87;;;2.33;;
13331;SDS011;6735;51.456;12.626;2023-12-20T12:40:52;4.93;;;2.47;;
13331;SDS011;6735;51.456;12.626;2023-12-20T12:43:18;4.53;;;2.10;;
13331;SDS011;6735;51.456;12.626;2023-12-20T12:45:44;4.43;;;2.20;;
13331;SDS011;6735;51.456;12.626;2023-12-20T12:48:10;4.03;;;2.17;;
13331;SDS011;6735;51.456;12.626;2023-12-20T12:50:35;4.53;;;2.10;;
13331;SDS011;6735;51.456;12.626;2023-12-20T12:53:00;5.03;;;2.10;;
13331;SDS011;6735;51.456;12.626;2023-12-20T12:55:27;4.87;;;2.23;;
13331;SDS011;6735;51.456;12.626;2023-12-20T12:57:53;4.47;;;2.33;;
13331;SDS011;6735;51.456;12.626;2023-12-20T13:00:19;3.23;;;2.20;;
13331;SDS011;6735;51.456;12.626;2023-12-20T13:02:44;2.47;;;2.07;;
13331;SDS011;6735;51.456;12.626;2023-12-20T13:05:10;2.70;;;2.10;;
13331;SDS011;6735;51.456;12.626;2023-12-20T13:07:35;2.13;;;1.93;;
13331;SDS011;6735;51.456;12.626;2023-12-20T13:10:02;5.90;;;2.60;;
13331;SDS011;6735;51.456;12.626;2023-12-20T13:12:28;5.73;;;2.77;;
13331;SDS011;6735;51.456;12.626;2023-12-20T13:14:54;3.33;;;2.20;;
13331;SDS011;6735;51.456;12.626;2023-12-20T13:17:20;3.60;;;2.50;;
13331;SDS011;6735;51.456;12.626;2023-12-20T13:19:45;3.97;;;2.73;;
13331;SDS011;6735;51.456;12.626;2023-12-20T13:22:11;2.53;;;2.30;;
13331;SDS011;6735;51.456;12.626;2023-12-20T13:24:36;6.23;;;2.60;;
13331;SDS011;6735;51.456;12.626;2023-12-20T13:27:02;3.00;;;1.87;;
13331;SDS011;6735;51.456;12.626;2023-12-20T13:29:27;5.77;;;3.40;;
13331;SDS011;6735;51.456;12.626;2023-12-20T13:31:53;4.37;;;2.00;;
13331;SDS011;6735;51.456;12.626;2023-12-20T13:34:18;3.57;;;2.57;;
13331;SDS011;6735;51.456;12.626;2023-12-20T13:36:44;4.50;;;2.73;;
13331;SDS011;6735;51.456;12.626;2023-12-20T13:39:14;4.03;;;2.40;;
13331;SDS011;6735;51.456;12.626;2023-12-20T13:41:40;3.17;;;2.33;;
13331;SDS011;6735;51.456;12.626;2023-12-20T13:44:05;4.27;;;3.10;;
13331;SDS011;6735;51.456;12.626;2023-12-20T13:46:31;3.50;;;2.27;;
13331;SDS011;6735;51.456;12.626;2023-12-20T13:48:56;3.23;;;2.30;;
13331;SDS011;6735;51.456;12.626;2023-12-20T13:51:22;2.47;;;1.90;;
13331;SDS011;6735;51.456;12.626;2023-12-20T13:53:47;3.20;;;2.10;;
13331;SDS011;6735;51.456;12.626;2023-12-20T13:56:13;2.63;;;2.43;;
13331;SDS011;6735;51.456;12.626;2023-12-20T13:58:40;4.83;;;2.80;;
13331;SDS011;6735;51.456;12.626;2023-12-20T14:01:06;4.13;;;2.30;;
13331;SDS011;6735;51.456;12.626;2023-12-20T14:03:32;2.37;;;1.97;;
13331;SDS011;6735;51.456;12.626;2023-12-20T14:05:58;3.17;;;1.90;;
13331;SDS011;6735;51.456;12.626;2023-12-20T14:08:25;2.47;;;1.90;;
13331;SDS011;6735;51.456;12.626;2023-12-20T14:10:52;3.60;;;2.10;;
13331;SDS011;6735;51.456;12.626;2023-12-20T14:13:17;2.27;;;2.10;;
13331;SDS011;6735;51.456;12.626;2023-12-20T14:15:43;5.27;;;2.30;;
13331;SDS011;6735;51.456;12.626;2023-12-20T14:18:09;4.67;;;2.00;;
13331;SDS011;6735;51.456;12.626;2023-12-20T14:20:35;3.93;;;2.73;;
13331;SDS011;6735;51.456;12.626;2023-12-20T14:23:01;2.13;;;1.90;;
13331;SDS011;6735;51.456;12.626;2023-12-20T14:25:27;4.47;;;2.00;;
13331;SDS011;6735;51.456;12.626;2023-12-20T14:27:53;4.33;;;1.90;;
13331;SDS011;6735;51.456;12.626;2023-12-20T14:30:18;3.80;;;2.40;;
13331;SDS011;6735;51.456;12.626;2023-12-20T14:32:44;2.50;;;1.70;;
13331;SDS011;6735;51.456;12.626;2023-12-20T14:35:09;3.67;;;2.00;;
13331;SDS011;6735;51.456;12.626;2023-12-20T14:37:36;3.50;;;1.90;;
13331;SDS011;6735;51.456;12.626;2023-12-20T14:40:08;2.70;;;2.40;;
13331;SDS011;6735;51.456;12.626;2023-12-20T14:42:39;2.97;;;2.00;;
13331;SDS011;6735;51.456;12.626;2023-12-20T14:45:06;2.00;;;1.80;;